createdAt,value
2019-02-01T00:03:59.767Z,74.63
2019-02-01T00:08:08.591Z,74.68
2019-02-01T00:12:16.573Z,74.79
2019-02-01T00:16:24.561Z,74.64
2019-02-01T00:20:32.650Z,74.91
2019-02-01T00:24:40.546Z,74.99
2019-02-01T00:28:48.529Z,74.88
2019-02-01T00:32:56.537Z,74.61
2019-02-01T00:37:04.524Z,73.68
2019-02-01T00:41:12.424Z,72.66
2019-02-01T00:45:20.112Z,71.98
2019-02-01T00:49:27.713Z,72.15
2019-02-01T00:53:35.498Z,71.51
2019-02-01T00:57:43.191Z,70.90
2019-02-01T01:01:51.272Z,71.14
2019-02-01T01:06:00.359Z,70.98
2019-02-01T01:10:10.442Z,72.19
2019-02-01T01:14:18.450Z,72.23
2019-02-01T01:18:26.450Z,73.40
2019-02-01T01:22:34.540Z,73.28
2019-02-01T01:26:42.313Z,73.50
2019-02-01T01:30:50.269Z,73.48
2019-02-01T01:34:58.249Z,72.58
2019-02-01T01:39:08.699Z,73.06
2019-02-01T01:43:17.053Z,73.28
2019-02-01T01:47:25.033Z,72.88
2019-02-01T01:51:33.131Z,72.80
2019-02-01T01:55:41.231Z,72.71
2019-02-01T01:59:49.230Z,72.27
2019-02-01T02:03:57.262Z,72.70
2019-02-01T02:08:06.049Z,72.82
2019-02-01T02:12:14.156Z,73.14
2019-02-01T02:16:21.855Z,72.78
2019-02-01T02:20:29.756Z,72.82
2019-02-01T02:24:37.453Z,72.87
2019-02-01T02:28:45.817Z,72.43
2019-02-01T02:32:54.257Z,72.13
2019-02-01T02:37:02.381Z,72.52
2019-02-01T02:41:11.377Z,72.72
2019-02-01T02:45:19.786Z,73.26
2019-02-01T02:49:27.877Z,72.93
2019-02-01T02:53:35.869Z,73.21
2019-02-01T02:57:43.777Z,73.03
2019-02-01T03:01:51.289Z,73.19
2019-02-01T03:05:59.292Z,73.55
2019-02-01T03:10:07.895Z,72.97
2019-02-01T03:14:15.793Z,73.06
2019-02-01T03:18:23.696Z,73.27
2019-02-01T03:22:31.712Z,73.07
2019-02-01T03:26:39.720Z,73.34
2019-02-01T03:30:47.716Z,73.14
2019-02-01T03:34:58.006Z,72.90
2019-02-01T03:39:07.783Z,72.90
2019-02-01T03:43:15.715Z,72.95
2019-02-01T03:47:23.808Z,72.51
2019-02-01T03:51:31.833Z,72.94
2019-02-01T03:55:39.731Z,73.22
2019-02-01T03:59:47.747Z,73.28
2019-02-01T04:03:55.755Z,73.43
2019-02-01T04:08:04.853Z,73.42
2019-02-01T04:12:12.844Z,73.35
2019-02-01T04:16:22.160Z,73.27
2019-02-01T04:20:29.948Z,73.09
2019-02-01T04:24:37.941Z,72.97
2019-02-01T04:28:45.657Z,72.71
2019-02-01T04:32:54.164Z,72.86
2019-02-01T04:37:02.187Z,72.96
2019-02-01T04:41:09.917Z,72.92
2019-02-01T04:45:23.397Z,72.58
2019-02-01T04:49:30.905Z,72.22
2019-02-01T04:53:38.998Z,72.50
2019-02-01T04:57:46.989Z,72.37
2019-02-01T05:01:54.965Z,72.56
2019-02-01T05:06:02.675Z,72.68
2019-02-01T05:10:12.196Z,72.44
2019-02-01T05:14:19.898Z,72.65
2019-02-01T05:18:27.419Z,72.87
2019-02-01T05:22:35.823Z,72.90
2019-02-01T05:26:43.834Z,72.88
2019-02-01T05:30:52.012Z,72.84
2019-02-01T05:35:00.041Z,72.44
2019-02-01T05:39:09.950Z,72.54
2019-02-01T05:43:17.879Z,72.16
2019-02-01T05:47:25.773Z,72.24
2019-02-01T05:51:33.683Z,72.34
2019-02-01T05:55:41.667Z,72.48
2019-02-01T05:59:49.589Z,72.22
2019-02-01T06:03:57.646Z,72.29
2019-02-01T06:08:05.563Z,72.42
2019-02-01T06:12:13.667Z,72.27
2019-02-01T06:16:22.139Z,72.30
2019-02-01T06:20:39.842Z,72.36
2019-02-01T06:24:40.644Z,72.80
2019-02-01T06:28:48.635Z,73.35
2019-02-01T06:32:56.732Z,73.42
2019-02-01T06:37:04.727Z,72.96
2019-02-01T06:41:13.136Z,72.31
2019-02-01T06:45:21.246Z,71.79
2019-02-01T06:49:28.866Z,71.71
2019-02-01T06:53:36.847Z,70.85
2019-02-01T06:57:44.808Z,70.96
2019-02-01T07:01:52.939Z,71.10
2019-02-01T07:06:00.496Z,70.10
2019-02-01T07:10:39.254Z,70.56
2019-02-01T07:15:12.634Z,70.21
2019-02-01T07:19:31.730Z,69.47
2019-02-01T07:23:57.290Z,69.46
2019-02-01T07:28:39.274Z,68.57
2019-02-01T07:33:09.057Z,69.14
2019-02-01T07:37:16.893Z,67.77
2019-02-01T07:41:25.021Z,68.28
2019-02-01T07:45:32.850Z,67.30
2019-02-01T07:49:40.595Z,67.90
2019-02-01T07:53:48.435Z,66.42
2019-02-01T07:57:56.459Z,67.21
2019-02-01T08:02:04.597Z,65.33
2019-02-01T08:06:12.723Z,65.82
2019-02-01T08:10:20.361Z,65.43
2019-02-01T08:14:30.589Z,64.92
2019-02-01T08:18:37.898Z,63.89
2019-02-01T08:22:45.831Z,63.45
2019-02-01T08:26:53.928Z,62.91
2019-02-01T08:31:01.644Z,62.43
2019-02-01T08:35:11.984Z,64.09
2019-02-01T08:39:19.926Z,63.45
2019-02-01T08:43:28.566Z,63.18
2019-02-01T08:47:36.683Z,62.64
2019-02-01T08:51:44.405Z,63.42
2019-02-01T08:55:52.345Z,61.71
2019-02-01T09:00:00.139Z,62.11
2019-02-01T09:04:08.744Z,61.81
2019-02-01T09:08:16.883Z,60.61
2019-02-01T09:12:24.767Z,61.59
2019-02-01T09:16:32.428Z,59.93
2019-02-01T09:20:40.327Z,58.59
2019-02-01T09:24:48.139Z,58.53
2019-02-01T09:28:56.173Z,58.34
2019-02-01T09:33:04.289Z,57.98
2019-02-01T09:37:11.995Z,57.45
2019-02-01T09:41:20.148Z,56.52
2019-02-01T09:45:28.292Z,56.32
2019-02-01T09:49:35.909Z,54.68
2019-02-01T09:53:43.726Z,54.44
2019-02-01T09:57:52.096Z,52.84
2019-02-01T10:02:00.119Z,53.20
2019-02-01T10:06:07.880Z,54.46
2019-02-01T10:10:17.494Z,52.12
2019-02-01T10:14:25.472Z,51.17
2019-02-01T10:18:33.415Z,51.01
2019-02-01T10:22:41.521Z,51.13
2019-02-01T10:26:49.523Z,48.78
2019-02-01T10:30:57.269Z,48.14
2019-02-01T10:35:05.519Z,48.33
2019-02-01T10:39:13.427Z,48.16
2019-02-01T10:43:21.150Z,47.16
2019-02-01T10:47:28.903Z,47.46
2019-02-01T10:51:36.964Z,46.86
2019-02-01T10:55:46.066Z,46.43
2019-02-01T10:59:54.189Z,47.09
2019-02-01T11:04:02.320Z,44.89
2019-02-01T11:08:10.151Z,46.09
2019-02-01T11:12:18.134Z,44.91
2019-02-01T11:16:27.281Z,44.78
2019-02-01T11:20:35.156Z,43.65
2019-02-01T11:24:43.203Z,43.44
2019-02-01T11:28:51.012Z,42.56
2019-02-01T11:32:58.758Z,43.48
2019-02-01T11:37:06.929Z,42.21
2019-02-01T11:41:14.835Z,43.48
2019-02-01T11:45:22.996Z,43.52
2019-02-01T11:49:30.643Z,42.13
2019-02-01T11:53:38.756Z,41.54
2019-02-01T11:57:46.983Z,42.37
2019-02-01T12:01:54.594Z,42.11
2019-02-01T12:06:02.311Z,40.58
2019-02-01T12:10:16.611Z,41.99
2019-02-01T12:14:24.138Z,41.20
2019-02-01T12:18:31.863Z,41.28
2019-02-01T12:22:39.664Z,41.24
2019-02-01T12:26:47.583Z,41.66
2019-02-01T12:30:55.616Z,41.17
2019-02-01T12:35:03.787Z,41.37
2019-02-01T12:39:11.496Z,40.92
2019-02-01T12:43:19.009Z,41.10
2019-02-01T12:47:26.749Z,40.23
2019-02-01T12:51:34.844Z,39.84
2019-02-01T12:55:43.044Z,40.23
2019-02-01T12:59:50.754Z,40.72
2019-02-01T13:03:58.830Z,40.33
2019-02-01T13:08:08.323Z,39.92
2019-02-01T13:12:16.534Z,40.74
2019-02-01T13:16:24.474Z,40.42
2019-02-01T13:20:32.299Z,39.86
2019-02-01T13:24:45.290Z,39.91
2019-02-01T13:28:49.627Z,39.72
2019-02-01T13:32:58.137Z,39.11
2019-02-01T13:37:06.171Z,39.57
2019-02-01T13:41:13.892Z,39.90
2019-02-01T13:45:21.722Z,40.23
2019-02-01T13:49:29.451Z,39.74
2019-02-01T13:53:37.933Z,39.80
2019-02-01T13:57:46.063Z,40.00
2019-02-01T14:01:54.600Z,40.11
2019-02-01T14:06:02.688Z,39.98
2019-02-01T14:10:14.105Z,41.14
2019-02-01T14:14:22.310Z,40.50
2019-02-01T14:18:32.059Z,41.23
2019-02-01T14:22:39.766Z,41.05
2019-02-01T14:26:47.535Z,41.23
2019-02-01T14:30:55.424Z,41.57
2019-02-01T14:35:03.231Z,42.40
2019-02-01T14:39:11.362Z,42.57
2019-02-01T14:43:19.171Z,42.27
2019-02-01T14:47:26.791Z,42.97
2019-02-01T14:51:34.629Z,42.74
2019-02-01T14:55:42.577Z,42.52
2019-02-01T14:59:50.266Z,43.03
2019-02-01T15:03:57.970Z,43.14
2019-02-01T15:08:06.235Z,43.53
2019-02-01T15:12:14.453Z,43.79
2019-02-01T15:16:37.525Z,45.29
2019-02-01T15:20:33.218Z,45.90
2019-02-01T15:24:41.315Z,46.69
2019-02-01T15:28:49.241Z,48.18
2019-02-01T15:32:57.329Z,49.35
2019-02-01T15:37:05.446Z,49.39
2019-02-01T15:41:13.421Z,49.15
2019-02-01T15:45:21.537Z,49.51
2019-02-01T15:49:29.274Z,49.70
2019-02-01T15:53:37.396Z,50.18
2019-02-01T15:57:45.683Z,49.91
2019-02-01T16:01:53.881Z,50.20
2019-02-01T16:06:01.885Z,50.41
2019-02-01T16:10:11.592Z,51.41
2019-02-01T16:14:19.932Z,51.69
2019-02-01T16:18:28.085Z,52.36
2019-02-01T16:22:36.389Z,54.01
2019-02-01T16:26:44.600Z,53.49
2019-02-01T16:30:52.476Z,52.26
2019-02-01T16:35:00.636Z,52.51
2019-02-01T16:39:10.078Z,53.26
2019-02-01T16:43:18.308Z,53.99
2019-02-01T16:47:26.298Z,55.24
2019-02-01T16:51:34.603Z,54.95
2019-02-01T16:55:42.648Z,54.14
2019-02-01T16:59:50.643Z,55.41
2019-02-01T17:03:58.421Z,54.09
2019-02-01T17:08:08.608Z,53.29
2019-02-01T17:12:16.226Z,55.11
2019-02-01T17:16:24.266Z,55.09
2019-02-01T17:20:33.805Z,56.54
2019-02-01T17:24:41.822Z,55.34
2019-02-01T17:28:49.567Z,56.19
2019-02-01T17:32:58.494Z,55.28
2019-02-01T17:37:06.351Z,54.97
2019-02-01T17:41:13.997Z,56.14
2019-02-01T17:45:22.169Z,56.83
2019-02-01T17:49:31.394Z,56.21
2019-02-01T17:53:39.502Z,54.06
2019-02-01T17:57:47.129Z,53.81
2019-02-01T18:01:55.094Z,53.74
2019-02-01T18:06:03.268Z,53.50
2019-02-01T18:10:12.611Z,54.17
2019-02-01T18:14:21.596Z,55.32
2019-02-01T18:18:29.772Z,54.49
2019-02-01T18:22:44.427Z,55.09
2019-02-01T18:26:54.617Z,56.44
2019-02-01T18:31:02.926Z,56.98
2019-02-01T18:35:10.702Z,58.02
2019-02-01T18:39:18.750Z,57.42
2019-02-01T18:43:26.706Z,57.86
2019-02-01T18:47:36.224Z,57.98
2019-02-01T18:51:44.493Z,57.66
2019-02-01T18:55:54.597Z,59.59
2019-02-01T19:00:02.350Z,57.37
2019-02-01T19:04:11.373Z,58.87
2019-02-01T19:08:19.433Z,59.11
2019-02-01T19:12:27.305Z,60.24
2019-02-01T19:16:35.228Z,59.31
2019-02-01T19:20:43.356Z,59.60
2019-02-01T19:24:51.394Z,60.22
2019-02-01T19:28:59.551Z,59.76
2019-02-01T19:33:08.327Z,59.32
2019-02-01T19:37:16.473Z,59.84
2019-02-01T19:41:24.629Z,61.00
2019-02-01T19:45:32.979Z,59.63
2019-02-01T19:49:41.647Z,59.94
2019-02-01T19:53:49.792Z,60.29
2019-02-01T19:57:57.765Z,60.62
2019-02-01T20:02:06.051Z,60.80
2019-02-01T20:06:13.911Z,60.93
2019-02-01T20:10:24.145Z,61.52
2019-02-01T20:14:33.262Z,62.07
2019-02-01T20:18:41.126Z,61.68
2019-02-01T20:22:49.180Z,62.19
2019-02-01T20:26:57.308Z,62.35
2019-02-01T20:31:05.540Z,62.50
2019-02-01T20:35:14.627Z,62.88
2019-02-01T20:39:22.785Z,62.90
2019-02-01T20:43:31.092Z,61.76
2019-02-01T20:47:41.616Z,61.86
2019-02-01T20:51:49.694Z,61.90
2019-02-01T20:55:57.976Z,62.22
2019-02-01T21:00:11.244Z,63.00
2019-02-01T21:04:19.417Z,62.63
2019-02-01T21:08:27.826Z,64.11
2019-02-01T21:12:36.065Z,64.37
2019-02-01T21:16:44.130Z,63.81
2019-02-01T21:20:52.065Z,63.14
2019-02-01T21:25:00.306Z,63.77
2019-02-01T21:29:08.434Z,63.67
2019-02-01T21:33:16.553Z,64.39
2019-02-01T21:37:24.711Z,63.77
2019-02-01T21:41:33.116Z,64.35
2019-02-01T21:45:42.915Z,63.15
2019-02-01T21:49:50.817Z,64.15
2019-02-01T21:53:58.952Z,63.48
2019-02-01T21:58:07.408Z,63.80
2019-02-01T22:02:15.527Z,63.72
2019-02-01T22:06:23.576Z,65.05
2019-02-01T22:10:32.873Z,65.44
2019-02-01T22:14:41.047Z,64.79
2019-02-01T22:18:48.689Z,64.82
2019-02-01T22:22:56.821Z,63.96
2019-02-01T22:27:05.168Z,63.82
2019-02-01T22:31:12.995Z,64.21
2019-02-01T22:35:22.355Z,65.08
2019-02-01T22:39:30.539Z,65.12
2019-02-01T22:43:38.665Z,64.53
2019-02-01T22:47:46.618Z,64.12
2019-02-01T22:51:54.710Z,64.33
2019-02-01T22:56:02.419Z,65.05
2019-02-01T23:01:25.079Z,64.59
2019-02-01T23:05:33.141Z,64.48
2019-02-01T23:09:41.155Z,64.85
2019-02-01T23:13:49.214Z,65.57
2019-02-01T23:17:58.622Z,66.33
2019-02-01T23:22:12.447Z,65.37
2019-02-01T23:26:25.274Z,66.39
2019-02-01T23:30:35.883Z,65.93
2019-02-01T23:34:45.857Z,66.60
2019-02-01T23:38:53.799Z,66.63
2019-02-01T23:43:12.885Z,66.74
2019-02-01T23:47:24.943Z,65.90
2019-02-01T23:51:42.024Z,66.48
2019-02-01T23:55:58.698Z,66.47
